Terminal Aerodrome Forecast
Issued by NWS Cleveland, OH

Home | Current Version | Previous Version | Graphics & Text | Print | Product List | Glossary On
Versions: 1 2 3 4 5 6 7 8 9 10 11 12 13 14 15 16 17 18 19 20 21 22
000
FTUS41 KCLE 180400 AAA
TAFYNG
TAF AMD
KYNG 180411Z 1804/1824 27012G18KT P6SM -SHRA SCT015 OVC035
      TEMPO 1804/1808 5SM -SHRA BKN015
     FM180800 29012KT 6SM -SHRA BR SCT009 OVC015
     FM181600 30012G20KT P6SM VCSH OVC025
     FM182100 30014KT P6SM OVC035=

USA.gov is the U.S. government's official web portal to all federal, state and local government web resources and services.